Saint Anne, IL (60964)

4:30 AM CDT on May 06, 2015 (GMT -0500)
Greater Kankakee | | Change Station
CLOSE
Current Station
Airport
Location: Kankakee,
Elevation: 630 ft
Nearby Weather Stations
Active Advisory: Special Statement

Elev 630 ft 41.07 °N, 87.85 °W | Updated 15 minutes ago

Fog
Fog
62 °F
Feels Like 62 °F
N
6
Wind Variable Wind from ESE

Today
High -- | Low -- °F
--% Chance of Precip.
Yesterday
High -- | Low -- °F
Precip. -- in
5:42 AM 7:52 PM
Waning Gibbous, 95% visible
Pressure 30.16 in
Visibility 1.0 miles
Clouds Overcast 200 ft
Dew Point 61 °F
Humidity 98%
Rainfall 0.00 in
Snow Depth Not available.
UV 0 out of 12
Pollen .60 out of 12
Air Quality Not available.
Flu Activity Local Activity
METAR KIKK 060915Z AUTO 11005KT 1SM BR OVC002 16/16 A3016 RMK AO2 T01640161

More Conditions Fewer Conditions

Pressure 30.16 in
Visibility 1.0 miles
Clouds Overcast 200 ft
Dew Point 61 °F
Humidity 98%
Rainfall 0.00 in
Snow Depth Not available.
UV 0 out of 12
Pollen .60 out of 12
Air Quality Not available.
Flu Activity Local Activity
METAR KIKK 060915Z AUTO 11005KT 1SM BR OVC002 16/16 A3016 RMK AO2 T01640161

More Conditions Fewer Conditions

10-Day Weather Forecast

Almanac

Astronomy

May. 06, 2015 Rise Set
Actual Time
Civil Twilight
Nautical Twilight
Astronomical Twilight
Moon
Length of Visible Light
Length of Day
Tomorrow will be .
, % of the Moon is Illuminated

Today's Extremes

State Highs State Lows

Community

WunderPhotos

Upload Photos

1,818,859 photos uploaded!

WunderBlogs® & News

Nearby

Air Quality

  Air Quality AQ Index Pollutant
Not available.

Snow Depth

Station Depth Elevation

Earthquake Activity

City Distance Mag. Time & Date
Minimum magnitude displayed is 2.5.

Coastal Water Temperatures

Place Temperature

Stations

Nearby Weather Stations

Station Location Temp. Windchill Dew Point Humidity Wind Precip. Elev Updated Type
                   
Special Statement
Statement as of 4:15 AM CDT on May 06, 2015

... Areas of dense fog through early to mid morning...

Fog is widespread across northern Illinois and Northwest Indiana
this morning. Some of the fog is dense with visibility under one
quarter of a mile in places... especially in lower lying areas or
near bodies of water. The fog will continue through 8 am with
gradual improvement after. Exercise caution during the morning
commute... planning for possible longer travel times... and be
prepared for low and rapid changes in visibility.


Mtf